createdAt,value
2017-06-08T00:00:40.062Z,0
2017-06-08T00:01:40.956Z,0
2017-06-08T00:02:41.598Z,0
2017-06-08T00:03:42.237Z,0
2017-06-08T00:04:42.882Z,0
2017-06-08T00:05:43.519Z,0
2017-06-08T00:06:44.161Z,0
2017-06-08T00:07:44.803Z,0
2017-06-08T00:08:45.447Z,0
2017-06-08T00:09:46.237Z,0
2017-06-08T00:10:46.880Z,0
2017-06-08T00:11:47.521Z,0
2017-06-08T00:12:48.165Z,0
2017-06-08T00:13:48.804Z,0
2017-06-08T00:14:49.449Z,0
2017-06-08T00:15:50.087Z,0
2017-06-08T00:16:50.730Z,0
2017-06-08T00:17:51.623Z,0
2017-06-08T00:18:52.264Z,0
2017-06-08T00:19:52.906Z,0
2017-06-08T00:20:53.549Z,0
2017-06-08T00:21:54.189Z,0
2017-06-08T00:22:54.829Z,0
2017-06-08T00:23:55.471Z,0
2017-06-08T00:24:56.113Z,0
2017-06-08T00:25:56.905Z,0
2017-06-08T00:26:57.547Z,0
2017-06-08T00:27:58.196Z,0
2017-06-08T00:28:58.840Z,0
2017-06-08T00:29:59.481Z,0
2017-06-08T00:31:00.125Z,0
2017-06-08T00:32:00.764Z,0
2017-06-08T00:33:01.406Z,0
2017-06-08T00:34:02.047Z,0
2017-06-08T00:35:02.888Z,0
2017-06-08T00:36:03.531Z,0
2017-06-08T00:37:04.171Z,0
2017-06-08T00:38:04.812Z,0
2017-06-08T00:39:05.454Z,0
2017-06-08T00:40:06.095Z,0
2017-06-08T00:41:06.737Z,0
2017-06-08T00:42:07.382Z,0
2017-06-08T00:43:08.323Z,0
2017-06-08T00:44:08.965Z,0
2017-06-08T00:45:09.605Z,0
2017-06-08T00:46:10.247Z,0
2017-06-08T00:47:10.889Z,0
2017-06-08T00:48:11.529Z,0
2017-06-08T00:49:12.174Z,0
2017-06-08T00:50:12.815Z,0
2017-06-08T00:51:13.656Z,0
2017-06-08T00:52:14.297Z,0
2017-06-08T00:53:14.940Z,0
2017-06-08T00:54:15.581Z,0
2017-06-08T00:55:16.223Z,0
2017-06-08T00:56:16.864Z,0
2017-06-08T00:57:17.506Z,0
2017-06-08T00:58:18.146Z,0
2017-06-08T00:59:18.937Z,0
2017-06-08T01:00:19.578Z,0
2017-06-08T01:01:20.219Z,0
2017-06-08T01:02:20.860Z,0
2017-06-08T01:03:21.500Z,0
2017-06-08T01:04:22.147Z,0
2017-06-08T01:05:22.791Z,0
2017-06-08T01:06:23.489Z,0
2017-06-08T01:07:24.131Z,0
2017-06-08T01:08:24.974Z,0
2017-06-08T01:09:25.615Z,0
2017-06-08T01:10:26.256Z,0
2017-06-08T01:11:26.899Z,0
2017-06-08T01:12:27.541Z,0
2017-06-08T01:13:28.185Z,0
2017-06-08T01:14:28.827Z,0
2017-06-08T01:15:29.467Z,0
2017-06-08T01:16:30.306Z,0
2017-06-08T01:17:30.949Z,0
2017-06-08T01:18:31.592Z,0
2017-06-08T01:19:32.237Z,0
2017-06-08T01:20:32.879Z,0
2017-06-08T01:21:33.518Z,0
2017-06-08T01:22:34.161Z,0
2017-06-08T01:23:34.805Z,0
2017-06-08T01:24:35.744Z,0
2017-06-08T01:25:36.385Z,0
2017-06-08T01:26:37.027Z,0
2017-06-08T01:27:37.671Z,0
2017-06-08T01:28:38.313Z,0
2017-06-08T01:29:38.954Z,0
2017-06-08T01:30:39.594Z,0
2017-06-08T01:31:40.239Z,0
2017-06-08T01:32:41.078Z,0
2017-06-08T01:33:41.729Z,0
2017-06-08T01:34:42.371Z,0
2017-06-08T01:35:43.013Z,0
2017-06-08T01:36:43.653Z,0
2017-06-08T01:37:44.294Z,0
2017-06-08T01:38:44.935Z,0
2017-06-08T01:39:45.580Z,0
2017-06-08T01:40:46.525Z,0
2017-06-08T01:41:47.166Z,0
2017-06-08T01:42:47.807Z,0
2017-06-08T01:43:48.448Z,0
2017-06-08T01:44:49.088Z,0
2017-06-08T01:45:49.732Z,0
2017-06-08T01:46:50.372Z,0
2017-06-08T01:53:04.402Z,0
2017-06-08T01:54:05.047Z,0
2017-06-08T01:55:05.683Z,0
2017-06-08T01:56:06.329Z,0
2017-06-08T01:57:06.970Z,0
2017-06-08T01:58:07.612Z,0
2017-06-08T01:59:08.253Z,0
2017-06-08T02:00:08.893Z,0
2017-06-08T02:01:09.735Z,0
2017-06-08T02:02:10.378Z,0
2017-06-08T02:03:11.020Z,0
2017-06-08T02:04:11.661Z,0
2017-06-08T02:05:12.301Z,0
2017-06-08T02:06:12.944Z,0
2017-06-08T02:07:13.585Z,0
2017-06-08T02:08:14.228Z,0
2017-06-08T02:09:15.270Z,0
2017-06-08T02:10:15.912Z,0
2017-06-08T02:11:16.554Z,0
2017-06-08T02:12:17.195Z,0
2017-06-08T02:13:17.840Z,0
2017-06-08T02:14:18.479Z,0
2017-06-08T02:15:19.120Z,0
2017-06-08T02:16:19.763Z,0
2017-06-08T02:17:20.703Z,0
2017-06-08T02:18:21.346Z,0
2017-06-08T02:19:21.987Z,0
2017-06-08T02:20:22.630Z,0
2017-06-08T02:21:23.271Z,0
2017-06-08T02:22:23.911Z,0
2017-06-08T02:23:24.556Z,0
2017-06-08T02:24:25.195Z,0
2017-06-08T02:25:25.836Z,0
2017-06-08T02:26:26.679Z,0
2017-06-08T02:27:27.319Z,0
2017-06-08T02:28:27.960Z,0
2017-06-08T02:29:28.604Z,0
2017-06-08T02:30:29.244Z,0
2017-06-08T02:31:29.886Z,0
2017-06-08T02:32:30.528Z,0
2017-06-08T02:33:31.169Z,0
2017-06-08T02:34:32.010Z,0
2017-06-08T02:35:32.653Z,0
2017-06-08T02:36:33.297Z,0
2017-06-08T02:37:33.938Z,0
2017-06-08T02:38:34.582Z,0
2017-06-08T02:39:35.223Z,0
2017-06-08T02:40:35.865Z,0
2017-06-08T02:41:36.504Z,0
2017-06-08T02:42:37.347Z,0
2017-06-08T02:43:37.998Z,0
2017-06-08T02:44:38.640Z,0
2017-06-08T02:45:39.281Z,0
2017-06-08T02:46:39.928Z,0
2017-06-08T02:47:40.562Z,0
2017-06-08T02:48:41.204Z,0
2017-06-08T02:49:41.846Z,0
2017-06-08T02:50:42.690Z,0
2017-06-08T02:51:43.330Z,0
2017-06-08T02:52:43.977Z,0
2017-06-08T02:53:44.674Z,0
2017-06-08T02:54:45.376Z,0
2017-06-08T02:55:46.017Z,0
2017-06-08T02:56:46.659Z,0
2017-06-08T02:57:47.301Z,0
2017-06-08T02:58:48.140Z,0
2017-06-08T02:59:48.784Z,0
2017-06-08T03:00:49.427Z,0
2017-06-08T03:01:50.070Z,0
2017-06-08T03:02:50.720Z,0
2017-06-08T03:03:51.416Z,0
2017-06-08T03:04:52.051Z,0
2017-06-08T03:05:52.692Z,0
2017-06-08T03:06:53.334Z,0
2017-06-08T03:07:54.127Z,0
2017-06-08T03:08:54.767Z,0
2017-06-08T03:09:55.407Z,0
2017-06-08T03:10:56.049Z,0
2017-06-08T03:11:56.689Z,0
2017-06-08T03:12:57.331Z,0
2017-06-08T03:13:57.973Z,0
2017-06-08T03:14:58.616Z,0
2017-06-08T03:15:59.458Z,0
2017-06-08T03:17:00.100Z,0
2017-06-08T03:18:00.740Z,0
2017-06-08T03:19:01.386Z,0
2017-06-08T03:20:02.027Z,0
2017-06-08T03:21:02.669Z,0
2017-06-08T03:22:03.308Z,0
2017-06-08T03:23:03.951Z,0
2017-06-08T03:24:04.794Z,0
2017-06-08T03:25:05.435Z,0
2017-06-08T03:26:06.075Z,0
2017-06-08T03:27:06.717Z,0
2017-06-08T03:28:07.357Z,0
2017-06-08T03:29:07.998Z,0
2017-06-08T03:30:08.641Z,0
2017-06-08T03:31:09.290Z,0
2017-06-08T03:32:10.128Z,0
2017-06-08T03:33:10.774Z,0
2017-06-08T03:34:11.414Z,0
2017-06-08T03:35:12.056Z,0
2017-06-08T03:36:12.695Z,0
2017-06-08T03:37:13.339Z,0
2017-06-08T03:38:13.982Z,0
2017-06-08T03:39:14.626Z,0
2017-06-08T03:40:15.266Z,0
2017-06-08T03:41:16.106Z,0
2017-06-08T03:42:16.748Z,0
2017-06-08T03:43:17.394Z,0
2017-06-08T03:44:18.035Z,0
2017-06-08T03:45:18.674Z,0
2017-06-08T03:46:19.315Z,0
2017-06-08T03:47:19.955Z,0
2017-06-08T03:48:20.596Z,0
2017-06-08T03:49:21.390Z,0
2017-06-08T03:50:22.032Z,0
2017-06-08T03:51:22.674Z,0
2017-06-08T03:52:23.320Z,0
2017-06-08T03:53:23.953Z,0
2017-06-08T03:54:24.596Z,0
2017-06-08T03:55:25.240Z,0
2017-06-08T03:56:25.880Z,0
2017-06-08T03:57:26.719Z,0
2017-06-08T03:58:27.360Z,0
2017-06-08T03:59:28.003Z,0
2017-06-08T04:00:28.648Z,0
2017-06-08T04:01:29.286Z,0
2017-06-08T04:02:29.927Z,0
2017-06-08T04:03:30.568Z,0
2017-06-08T04:04:31.210Z,0
2017-06-08T04:05:32.103Z,0
2017-06-08T04:06:32.747Z,0
2017-06-08T04:07:33.387Z,0
2017-06-08T04:08:34.029Z,0
2017-06-08T04:09:34.671Z,0
2017-06-08T04:10:35.311Z,0
2017-06-08T04:11:35.954Z,0
2017-06-08T04:12:36.594Z,0
2017-06-08T04:13:37.438Z,0
2017-06-08T04:14:38.077Z,0
2017-06-08T04:15:38.721Z,0
2017-06-08T04:16:39.362Z,0
2017-06-08T04:17:40.004Z,0
2017-06-08T04:18:40.648Z,0
2017-06-08T04:19:41.289Z,0
2017-06-08T04:20:41.929Z,0
2017-06-08T04:21:42.569Z,0
2017-06-08T04:22:43.511Z,0
2017-06-08T04:23:44.151Z,0
2017-06-08T04:24:44.793Z,0
2017-06-08T04:25:45.438Z,0
2017-06-08T04:26:46.079Z,0
2017-06-08T04:27:46.720Z,0
2017-06-08T04:28:47.359Z,0
2017-06-08T04:29:48.001Z,0
2017-06-08T04:30:48.842Z,0
2017-06-08T04:31:49.486Z,0
2017-06-08T04:32:50.127Z,0
2017-06-08T04:33:50.765Z,0
2017-06-08T04:34:51.406Z,0
2017-06-08T04:35:52.050Z,0
2017-06-08T04:36:52.688Z,0
2017-06-08T04:37:53.331Z,0
2017-06-08T04:38:54.172Z,0
2017-06-08T04:39:54.814Z,0
2017-06-08T04:40:55.456Z,0
2017-06-08T04:41:56.096Z,0
2017-06-08T04:42:56.741Z,0
2017-06-08T04:43:57.385Z,0
2017-06-08T04:44:58.081Z,0
2017-06-08T04:45:58.724Z,0
2017-06-08T04:46:59.571Z,0
2017-06-08T04:48:00.210Z,0
2017-06-08T04:49:00.850Z,0
2017-06-08T04:50:01.491Z,0
2017-06-08T04:51:02.133Z,0
2017-06-08T04:52:02.775Z,0
2017-06-08T04:53:03.423Z,0
2017-06-08T04:54:04.056Z,0
2017-06-08T04:55:04.697Z,0
2017-06-08T04:56:05.643Z,0
2017-06-08T04:57:06.286Z,0
2017-06-08T04:58:06.926Z,0
2017-06-08T04:59:07.568Z,0
2017-06-08T05:00:08.212Z,0
2017-06-08T05:01:08.856Z,0
2017-06-08T05:02:09.494Z,0
2017-06-08T05:03:10.136Z,0
2017-06-08T05:04:11.226Z,0
2017-06-08T05:05:11.871Z,0
2017-06-08T05:06:12.512Z,0
2017-06-08T05:07:13.161Z,0
2017-06-08T05:08:13.793Z,0
2017-06-08T05:09:14.434Z,0
2017-06-08T05:10:15.077Z,0
2017-06-08T05:11:15.718Z,0
2017-06-08T05:12:16.661Z,0
2017-06-08T05:13:17.303Z,0
2017-06-08T05:14:17.943Z,0
2017-06-08T05:15:18.582Z,0
2017-06-08T05:16:19.226Z,0
2017-06-08T05:17:19.866Z,0
2017-06-08T05:18:20.510Z,0
2017-06-08T05:19:21.155Z,0
2017-06-08T05:20:22.092Z,0
2017-06-08T05:21:22.733Z,0
2017-06-08T05:22:23.374Z,0
2017-06-08T05:23:24.014Z,0
2017-06-08T05:24:24.655Z,0
2017-06-08T05:25:25.299Z,0
2017-06-08T05:26:25.938Z,0
2017-06-08T05:27:26.581Z,0
2017-06-08T05:28:27.423Z,0
2017-06-08T05:29:28.062Z,0
2017-06-08T05:30:28.705Z,0
2017-06-08T05:31:29.346Z,0
2017-06-08T05:32:29.991Z,0
2017-06-08T05:33:30.630Z,0
2017-06-08T05:34:31.269Z,0
2017-06-08T05:35:31.911Z,0
2017-06-08T05:36:32.553Z,0
2017-06-08T05:37:33.445Z,0
2017-06-08T05:38:34.085Z,0
2017-06-08T05:39:34.726Z,0
2017-06-08T05:40:35.368Z,0
2017-06-08T05:41:36.008Z,0
2017-06-08T05:42:36.648Z,0
2017-06-08T05:43:37.289Z,0
2017-06-08T05:44:37.932Z,0
2017-06-08T05:45:38.724Z,0
2017-06-08T05:46:39.365Z,0
2017-06-08T05:47:40.007Z,0
2017-06-08T05:48:40.649Z,0
2017-06-08T05:49:41.293Z,0
2017-06-08T05:50:41.934Z,0
2017-06-08T05:51:42.574Z,0
2017-06-08T05:52:43.217Z,0
2017-06-08T05:53:44.057Z,0
2017-06-08T05:54:44.701Z,0
2017-06-08T05:55:45.343Z,0
2017-06-08T05:56:45.984Z,0
2017-06-08T05:57:46.627Z,0
2017-06-08T05:58:47.270Z,0
2017-06-08T05:59:47.907Z,0
2017-06-08T06:00:48.548Z,0
2017-06-08T06:01:49.492Z,0
2017-06-08T06:02:50.135Z,0
2017-06-08T06:03:50.774Z,0
2017-06-08T06:04:51.414Z,0
2017-06-08T06:05:52.056Z,0
2017-06-08T06:06:52.696Z,0
2017-06-08T06:07:53.337Z,0
2017-06-08T06:08:53.980Z,0
2017-06-08T06:09:54.625Z,0
2017-06-08T06:10:55.516Z,0
2017-06-08T06:11:56.154Z,0
2017-06-08T06:12:56.796Z,0
2017-06-08T06:13:57.437Z,0
2017-06-08T06:14:58.081Z,0
2017-06-08T06:15:58.722Z,0
2017-06-08T06:16:59.364Z,0
2017-06-08T06:18:00.005Z,0
2017-06-08T06:19:00.844Z,0
2017-06-08T06:20:01.487Z,0
2017-06-08T06:21:02.133Z,0
2017-06-08T06:22:02.828Z,0
2017-06-08T06:23:03.422Z,0
2017-06-08T06:24:04.059Z,0
2017-06-08T06:25:04.702Z,0
2017-06-08T06:26:05.341Z,0
2017-06-08T06:27:06.182Z,0
2017-06-08T06:28:06.822Z,0
2017-06-08T06:29:07.463Z,0
2017-06-08T06:30:08.104Z,0
2017-06-08T06:31:08.745Z,0
2017-06-08T06:32:09.388Z,0
2017-06-08T06:33:10.028Z,0
2017-06-08T06:34:10.671Z,0
2017-06-08T06:35:11.511Z,0
2017-06-08T06:36:12.153Z,0
2017-06-08T06:37:12.792Z,0
2017-06-08T06:38:13.434Z,0
2017-06-08T06:39:14.077Z,0
2017-06-08T06:40:14.717Z,0
2017-06-08T06:41:15.358Z,0
2017-06-08T06:42:15.998Z,0
2017-06-08T06:43:16.839Z,0
2017-06-08T06:44:17.484Z,0
2017-06-08T06:45:18.123Z,0
2017-06-08T06:46:18.765Z,0
2017-06-08T06:47:19.405Z,0
2017-06-08T06:48:20.045Z,0
2017-06-08T06:49:20.686Z,0
2017-06-08T06:50:21.329Z,0
2017-06-08T06:51:21.971Z,0
2017-06-08T06:52:22.811Z,0
2017-06-08T06:53:23.452Z,0
2017-06-08T06:54:24.095Z,0
2017-06-08T06:55:24.738Z,0
2017-06-08T06:56:25.380Z,0
2017-06-08T06:57:26.020Z,0
2017-06-08T06:58:26.660Z,0
2017-06-08T06:59:27.301Z,0
2017-06-08T07:00:28.143Z,0
2017-06-08T07:01:28.786Z,0
2017-06-08T07:02:29.426Z,0
2017-06-08T07:03:30.066Z,0
2017-06-08T07:04:30.709Z,0
2017-06-08T07:05:31.348Z,4
2017-06-08T07:06:31.992Z,8
2017-06-08T07:07:32.635Z,8
2017-06-08T07:08:33.426Z,8
2017-06-08T07:09:34.069Z,8
2017-06-08T07:10:34.710Z,12
2017-06-08T07:11:35.356Z,12
2017-06-08T07:12:35.997Z,12
2017-06-08T07:13:36.641Z,12
2017-06-08T07:14:37.283Z,12
2017-06-08T07:15:37.924Z,12
2017-06-08T07:16:38.766Z,12
2017-06-08T07:17:39.411Z,12
2017-06-08T07:18:40.055Z,12
2017-06-08T07:19:40.697Z,12
2017-06-08T07:20:41.338Z,12
2017-06-08T07:21:41.979Z,12
2017-06-08T07:22:42.620Z,8
2017-06-08T07:23:43.262Z,12
2017-06-08T07:24:43.905Z,16
2017-06-08T07:25:44.750Z,16
2017-06-08T07:26:45.390Z,16
2017-06-08T07:27:46.033Z,16
2017-06-08T07:28:46.676Z,16
2017-06-08T07:29:47.317Z,16
2017-06-08T07:30:47.958Z,16
2017-06-08T07:31:48.600Z,12
2017-06-08T07:32:49.244Z,12
2017-06-08T07:33:50.089Z,16
2017-06-08T07:34:50.732Z,16
2017-06-08T07:35:51.376Z,16
2017-06-08T07:36:52.016Z,12
2017-06-08T07:37:52.659Z,16
2017-06-08T07:38:53.301Z,16
2017-06-08T07:39:53.946Z,12
2017-06-08T07:40:54.588Z,16
2017-06-08T07:41:55.380Z,16
2017-06-08T07:42:56.025Z,16
2017-06-08T07:43:56.667Z,16
2017-06-08T07:44:57.312Z,16
2017-06-08T07:45:57.957Z,16
2017-06-08T07:46:58.600Z,16
2017-06-08T07:47:59.241Z,20
2017-06-08T07:48:59.883Z,16
2017-06-08T07:50:00.878Z,16
2017-06-08T07:51:01.516Z,16
2017-06-08T07:52:02.161Z,16
2017-06-08T07:53:02.802Z,16
2017-06-08T07:54:03.444Z,16
2017-06-08T07:55:04.089Z,20
2017-06-08T07:56:04.734Z,20
2017-06-08T07:57:05.376Z,20
2017-06-08T07:58:06.169Z,20
2017-06-08T07:59:06.811Z,20
2017-06-08T08:00:07.453Z,20
2017-06-08T08:01:08.096Z,20
2017-06-08T08:02:08.739Z,24
2017-06-08T08:03:09.382Z,20
2017-06-08T08:04:10.025Z,24
2017-06-08T08:05:10.665Z,24
2017-06-08T08:06:11.307Z,20
2017-06-08T08:07:12.149Z,24
2017-06-08T08:08:12.743Z,24
2017-06-08T08:09:13.385Z,24
2017-06-08T08:10:14.028Z,24
2017-06-08T08:11:14.669Z,28
2017-06-08T08:12:15.310Z,24
2017-06-08T08:13:15.955Z,24
2017-06-08T08:14:16.597Z,24
2017-06-08T08:15:17.393Z,24
2017-06-08T08:16:18.034Z,28
2017-06-08T08:17:18.676Z,24
2017-06-08T08:18:19.318Z,24
2017-06-08T08:19:19.964Z,24
2017-06-08T08:20:20.608Z,28
2017-06-08T08:21:21.250Z,28
2017-06-08T08:22:21.893Z,24
2017-06-08T08:23:22.833Z,28
2017-06-08T08:24:23.477Z,28
2017-06-08T08:25:24.117Z,28
2017-06-08T08:26:24.764Z,28
2017-06-08T08:27:25.460Z,28
2017-06-08T08:28:26.103Z,24
2017-06-08T08:29:26.746Z,24
2017-06-08T08:30:27.391Z,24
2017-06-08T08:31:28.182Z,24
2017-06-08T08:32:28.825Z,24
2017-06-08T08:33:29.473Z,24
2017-06-08T08:34:30.119Z,24
2017-06-08T08:35:30.756Z,24
2017-06-08T08:36:31.402Z,28
2017-06-08T08:37:31.993Z,24
2017-06-08T08:38:32.634Z,28
2017-06-08T08:39:33.275Z,28
2017-06-08T08:40:34.120Z,28
2017-06-08T08:41:34.762Z,28
2017-06-08T08:42:35.408Z,24
2017-06-08T08:43:36.109Z,28
2017-06-08T08:44:36.751Z,28
2017-06-08T08:45:37.395Z,28
2017-06-08T08:46:38.037Z,28
2017-06-08T08:47:38.683Z,28
2017-06-08T08:48:39.522Z,28
2017-06-08T08:49:40.168Z,28
2017-06-08T08:50:40.812Z,28
2017-06-08T08:51:41.450Z,28
2017-06-08T08:52:42.095Z,32
2017-06-08T08:53:42.740Z,32
2017-06-08T08:54:43.382Z,28
2017-06-08T08:55:44.073Z,32
2017-06-08T08:56:44.914Z,28
2017-06-08T08:57:45.560Z,28
2017-06-08T08:58:46.199Z,28
2017-06-08T08:59:46.893Z,28
2017-06-08T09:00:47.536Z,28
2017-06-08T09:01:48.179Z,28
2017-06-08T09:02:48.829Z,28
2017-06-08T09:03:49.522Z,32
2017-06-08T09:04:50.364Z,32
2017-06-08T09:05:51.006Z,28
2017-06-08T09:06:51.649Z,28
2017-06-08T09:07:52.290Z,28
2017-06-08T09:08:52.932Z,28
2017-06-08T09:09:53.625Z,28
2017-06-08T09:10:54.268Z,28
2017-06-08T09:11:55.109Z,24
2017-06-08T09:12:55.755Z,28
2017-06-08T09:13:56.392Z,28
2017-06-08T09:14:57.035Z,28
2017-06-08T09:15:57.677Z,28
2017-06-08T09:16:58.319Z,28
2017-06-08T09:17:58.962Z,28
2017-06-08T09:18:59.606Z,32
2017-06-08T09:20:00.449Z,32
2017-06-08T09:21:01.143Z,32
2017-06-08T09:22:01.784Z,32
2017-06-08T09:23:02.430Z,32
2017-06-08T09:24:03.119Z,36
2017-06-08T09:25:03.761Z,32
2017-06-08T09:26:04.402Z,36
2017-06-08T09:27:05.049Z,36
2017-06-08T09:28:05.844Z,36
2017-06-08T09:29:06.486Z,32
2017-06-08T09:30:07.129Z,36
2017-06-08T09:31:07.771Z,36
2017-06-08T09:32:08.415Z,36
2017-06-08T09:33:09.058Z,40
2017-06-08T09:34:09.757Z,40
2017-06-08T09:35:10.401Z,40
2017-06-08T09:36:11.245Z,36
2017-06-08T09:37:11.886Z,36
2017-06-08T09:38:15.559Z,32
2017-06-08T09:39:16.354Z,36
2017-06-08T09:40:16.996Z,36
2017-06-08T09:41:17.639Z,36
2017-06-08T09:42:18.281Z,36
2017-06-08T09:43:18.872Z,36
2017-06-08T09:44:19.462Z,36
2017-06-08T09:45:20.109Z,36
2017-06-08T09:46:20.753Z,36
2017-06-08T09:47:21.550Z,36
2017-06-08T09:48:22.191Z,36
2017-06-08T09:49:22.832Z,32
2017-06-08T09:50:23.475Z,28
2017-06-08T09:51:24.119Z,32
2017-06-08T09:52:24.761Z,32
2017-06-08T09:53:25.403Z,36
2017-06-08T09:54:26.044Z,36
2017-06-08T09:55:26.988Z,40
2017-06-08T09:56:27.630Z,36
2017-06-08T09:57:28.273Z,40
2017-06-08T09:58:28.914Z,36
2017-06-08T09:59:29.560Z,40
2017-06-08T10:00:30.202Z,36
2017-06-08T10:01:30.847Z,36
2017-06-08T10:02:31.487Z,36
2017-06-08T10:03:32.328Z,32
2017-06-08T10:04:32.973Z,28
2017-06-08T10:05:33.615Z,28
2017-06-08T10:06:34.259Z,32
2017-06-08T10:07:34.902Z,32
2017-06-08T10:08:35.545Z,32
2017-06-08T10:09:36.188Z,32
2017-06-08T10:10:36.830Z,36
2017-06-08T10:11:37.674Z,36
2017-06-08T10:12:38.267Z,36
2017-06-08T10:13:38.908Z,40
2017-06-08T10:14:39.549Z,40
2017-06-08T10:15:40.194Z,40
2017-06-08T10:16:40.834Z,40
2017-06-08T10:17:41.528Z,40
2017-06-08T10:18:42.170Z,40
2017-06-08T10:19:42.814Z,40
2017-06-08T10:20:43.607Z,36
2017-06-08T10:21:44.247Z,36
2017-06-08T10:22:45.090Z,36
2017-06-08T10:23:45.734Z,32
2017-06-08T10:24:46.380Z,36
2017-06-08T10:25:47.020Z,40
2017-06-08T10:26:47.661Z,36
2017-06-08T10:27:48.364Z,36
2017-06-08T10:28:49.006Z,36
2017-06-08T10:29:49.846Z,36
2017-06-08T10:30:50.492Z,32
2017-06-08T10:31:51.136Z,32
2017-06-08T10:32:51.778Z,36
2017-06-08T10:33:52.422Z,36
2017-06-08T10:34:53.066Z,36
2017-06-08T10:35:53.706Z,40
2017-06-08T10:36:54.347Z,36
2017-06-08T10:37:54.992Z,40
2017-06-08T10:38:55.783Z,40
2017-06-08T10:39:56.425Z,40
2017-06-08T10:40:57.119Z,40
2017-06-08T10:41:57.814Z,40
2017-06-08T10:43:01.490Z,40
2017-06-08T10:44:02.335Z,36
2017-06-08T10:45:02.978Z,40
2017-06-08T10:46:03.620Z,40
2017-06-08T10:47:04.267Z,44
2017-06-08T10:48:05.056Z,44
2017-06-08T10:49:06.050Z,48
2017-06-08T10:50:06.695Z,44
2017-06-08T10:51:07.335Z,44
2017-06-08T10:52:07.976Z,40
2017-06-08T10:53:08.618Z,44
2017-06-08T10:54:09.311Z,48
2017-06-08T10:55:09.957Z,48
2017-06-08T10:56:10.655Z,40
2017-06-08T10:57:11.499Z,44
2017-06-08T10:58:12.147Z,44
2017-06-08T10:59:12.848Z,44
2017-06-08T11:00:13.637Z,44
2017-06-08T11:01:14.278Z,44
2017-06-08T11:02:14.921Z,44
2017-06-08T11:03:15.562Z,40
2017-06-08T11:04:16.204Z,44
2017-06-08T11:05:16.850Z,52
2017-06-08T11:06:17.493Z,52
2017-06-08T11:07:18.136Z,52
2017-06-08T11:08:18.928Z,60
2017-06-08T11:09:19.572Z,60
2017-06-08T11:10:20.251Z,48
2017-06-08T11:11:20.861Z,48
2017-06-08T11:12:21.544Z,48
2017-06-08T11:13:22.185Z,56
2017-06-08T11:14:22.825Z,56
2017-06-08T11:15:23.468Z,48
2017-06-08T11:16:24.109Z,52
2017-06-08T11:17:24.951Z,52
2017-06-08T11:18:25.595Z,48
2017-06-08T11:19:26.236Z,48
2017-06-08T11:20:26.880Z,48
2017-06-08T11:21:27.529Z,44
2017-06-08T11:22:28.170Z,44
2017-06-08T11:23:28.816Z,44
2017-06-08T11:24:29.455Z,44
2017-06-08T11:25:30.248Z,44
2017-06-08T11:26:30.893Z,44
2017-06-08T11:27:31.536Z,44
2017-06-08T11:28:32.182Z,44
2017-06-08T11:29:32.820Z,44
2017-06-08T11:30:33.465Z,44
2017-06-08T11:31:34.109Z,44
2017-06-08T11:32:34.752Z,48
2017-06-08T11:33:35.545Z,52
2017-06-08T11:34:36.187Z,52
2017-06-08T11:35:36.831Z,60
2017-06-08T11:36:37.475Z,60
2017-06-08T11:37:38.119Z,60
2017-06-08T11:38:38.760Z,56
2017-06-08T11:39:39.408Z,56
2017-06-08T11:40:40.046Z,52
2017-06-08T11:41:40.839Z,52
2017-06-08T11:42:41.633Z,52
2017-06-08T11:43:42.275Z,56
2017-06-08T11:44:42.921Z,64
2017-06-08T11:45:43.564Z,60
2017-06-08T11:46:44.208Z,56
2017-06-08T11:47:44.855Z,52
2017-06-08T11:48:45.493Z,52
2017-06-08T11:49:46.136Z,52
2017-06-08T11:50:47.130Z,48
2017-06-08T11:51:47.772Z,48
2017-06-08T11:52:48.468Z,48
2017-06-08T11:53:49.159Z,48
2017-06-08T11:54:49.804Z,44
2017-06-08T11:55:50.446Z,44
2017-06-08T11:56:51.088Z,48
2017-06-08T11:57:51.729Z,44
2017-06-08T11:58:52.479Z,48
2017-06-08T11:59:53.117Z,48
2017-06-08T12:00:53.762Z,48
2017-06-08T12:01:54.403Z,48
2017-06-08T12:02:55.051Z,48
2017-06-08T12:03:55.695Z,52
2017-06-08T12:04:56.340Z,56
2017-06-08T12:05:56.985Z,56
2017-06-08T12:06:57.627Z,52
2017-06-08T12:07:58.470Z,52
2017-06-08T12:08:59.113Z,52
2017-06-08T12:09:59.755Z,48
2017-06-08T12:11:00.399Z,48
2017-06-08T12:12:01.043Z,52
2017-06-08T12:13:01.685Z,48
2017-06-08T12:14:02.326Z,52
2017-06-08T12:15:02.967Z,52
2017-06-08T12:16:04.011Z,52
2017-06-08T12:17:04.655Z,52
2017-06-08T12:18:05.297Z,56
2017-06-08T12:19:05.942Z,52
2017-06-08T12:20:06.584Z,56
2017-06-08T12:21:07.227Z,56
2017-06-08T12:22:07.871Z,56
2017-06-08T12:23:08.574Z,56
2017-06-08T12:24:09.417Z,56
2017-06-08T12:25:10.116Z,56
2017-06-08T12:26:10.762Z,56
2017-06-08T12:27:11.406Z,56
2017-06-08T12:28:12.048Z,60
2017-06-08T12:29:12.694Z,60
2017-06-08T12:30:13.332Z,60
2017-06-08T12:31:13.978Z,64
2017-06-08T12:32:14.822Z,64
2017-06-08T12:33:15.467Z,56
2017-06-08T12:34:16.111Z,64
2017-06-08T12:35:16.758Z,52
2017-06-08T12:36:17.400Z,52
2017-06-08T12:37:18.043Z,56
2017-06-08T12:38:18.684Z,56
2017-06-08T12:39:19.329Z,56
2017-06-08T12:40:19.971Z,56
2017-06-08T12:41:20.823Z,56
2017-06-08T12:42:21.458Z,52
2017-06-08T12:43:22.100Z,56
2017-06-08T12:44:22.743Z,52
2017-06-08T12:45:23.387Z,44
2017-06-08T12:46:24.029Z,56
2017-06-08T12:47:24.673Z,56
2017-06-08T12:48:25.316Z,60
2017-06-08T12:49:26.161Z,56
2017-06-08T12:50:26.803Z,60
2017-06-08T12:51:27.479Z,56
2017-06-08T12:52:28.092Z,56
2017-06-08T12:53:28.733Z,56
2017-06-08T12:54:29.374Z,56
2017-06-08T12:55:30.017Z,60
2017-06-08T12:56:30.664Z,52
2017-06-08T12:57:31.556Z,52
2017-06-08T12:58:32.201Z,52
2017-06-08T12:59:32.842Z,56
2017-06-08T13:00:33.487Z,56
2017-06-08T13:01:34.131Z,60
2017-06-08T13:02:34.775Z,56
2017-06-08T13:03:35.417Z,56
2017-06-08T13:04:36.063Z,56
2017-06-08T13:05:36.907Z,60
2017-06-08T13:06:37.551Z,56
2017-06-08T13:07:38.193Z,52
2017-06-08T13:08:38.834Z,52
2017-06-08T13:09:39.478Z,52
2017-06-08T13:10:40.122Z,52
2017-06-08T13:11:40.767Z,52
2017-06-08T13:12:41.660Z,48
2017-06-08T13:13:42.303Z,48
2017-06-08T13:14:42.995Z,48
2017-06-08T13:15:43.642Z,52
2017-06-08T13:16:44.286Z,52
2017-06-08T13:17:44.928Z,52
2017-06-08T13:18:45.571Z,52
2017-06-08T13:19:46.213Z,52
2017-06-08T13:20:46.857Z,52
2017-06-08T13:21:47.501Z,52
2017-06-08T13:22:48.348Z,52
2017-06-08T13:23:48.989Z,48
2017-06-08T13:24:49.635Z,48
2017-06-08T13:25:50.278Z,44
2017-06-08T13:26:50.925Z,44
2017-06-08T13:27:51.568Z,44
2017-06-08T13:28:52.214Z,48
2017-06-08T13:29:52.866Z,48
2017-06-08T13:30:53.708Z,44
2017-06-08T13:31:54.344Z,48
2017-06-08T13:32:54.989Z,44
2017-06-08T13:33:55.630Z,40
2017-06-08T13:34:56.275Z,40
2017-06-08T13:35:56.920Z,40
2017-06-08T13:36:57.562Z,44
2017-06-08T13:37:58.205Z,40
2017-06-08T13:38:59.101Z,44
2017-06-08T13:39:59.743Z,44
2017-06-08T13:41:00.385Z,44
2017-06-08T13:42:01.031Z,40
2017-06-08T13:43:01.673Z,44
2017-06-08T13:44:02.319Z,40
2017-06-08T13:45:02.962Z,40
2017-06-08T13:46:03.610Z,40
2017-06-08T13:47:04.556Z,36
2017-06-08T13:48:05.197Z,36
2017-06-08T13:49:05.840Z,36
2017-06-08T13:50:06.481Z,36
2017-06-08T13:51:07.125Z,32
2017-06-08T13:52:07.820Z,36
2017-06-08T13:53:08.463Z,36
2017-06-08T13:54:09.107Z,40
2017-06-08T13:55:09.749Z,36
2017-06-08T13:56:10.546Z,32
2017-06-08T13:57:11.187Z,36
2017-06-08T13:58:11.829Z,36
2017-06-08T13:59:12.475Z,32
2017-06-08T14:00:13.118Z,36
2017-06-08T14:01:13.765Z,40
2017-06-08T14:02:14.408Z,36
2017-06-08T14:03:15.052Z,36
2017-06-08T14:04:15.895Z,40
2017-06-08T14:05:16.541Z,40
2017-06-08T14:06:17.189Z,44
2017-06-08T14:07:17.828Z,44
2017-06-08T14:08:18.474Z,44
2017-06-08T14:09:19.117Z,44
2017-06-08T14:10:19.764Z,44
2017-06-08T14:11:20.406Z,44
2017-06-08T14:12:21.200Z,44
2017-06-08T14:13:21.842Z,44
2017-06-08T14:14:22.490Z,44
2017-06-08T14:15:23.133Z,40
2017-06-08T14:16:23.779Z,40
2017-06-08T14:17:24.422Z,44
2017-06-08T14:18:25.064Z,40
2017-06-08T14:19:25.705Z,40
2017-06-08T14:20:26.551Z,44
2017-06-08T14:21:27.197Z,44
2017-06-08T14:22:27.839Z,44
2017-06-08T14:23:28.489Z,40
2017-06-08T14:24:29.127Z,44
2017-06-08T14:25:29.770Z,44
2017-06-08T14:26:30.413Z,44
2017-06-08T14:27:31.057Z,44
2017-06-08T14:28:31.701Z,52
2017-06-08T14:29:32.496Z,52
2017-06-08T14:30:33.142Z,52
2017-06-08T14:31:33.843Z,48
2017-06-08T14:32:34.486Z,52
2017-06-08T14:33:35.132Z,48
2017-06-08T14:34:35.775Z,44
2017-06-08T14:35:36.417Z,44
2017-06-08T14:36:37.059Z,40
2017-06-08T14:37:37.902Z,40
2017-06-08T14:38:38.545Z,44
2017-06-08T14:39:39.187Z,44
2017-06-08T14:40:39.829Z,44
2017-06-08T14:41:40.476Z,48
2017-06-08T14:42:41.118Z,44
2017-06-08T14:43:41.760Z,48
2017-06-08T14:44:42.402Z,52
2017-06-08T14:45:43.351Z,56